createdAt,value
2023-03-17T00:01:21.710Z,0.99
2023-03-17T00:03:49.411Z,0.83
2023-03-17T00:06:17.792Z,0.67
2023-03-17T00:08:45.723Z,0.64
2023-03-17T00:11:13.802Z,0.53
2023-03-17T00:13:41.646Z,0.65
2023-03-17T00:16:18.852Z,0.82
2023-03-17T00:18:45.653Z,0.70
2023-03-17T00:21:16.813Z,0.77
2023-03-17T00:23:48.657Z,0.61
2023-03-17T00:26:15.278Z,0.51
2023-03-17T00:28:41.782Z,0.64
2023-03-17T00:31:18.830Z,0.58
2023-03-17T00:33:45.457Z,0.51
2023-03-17T00:36:24.275Z,0.23
2023-03-17T00:38:51.063Z,0.55
2023-03-17T00:41:18.283Z,0.76
2023-03-17T00:43:44.922Z,0.72
2023-03-17T00:46:26.673Z,0.48
2023-03-17T00:48:53.247Z,0.55
2023-03-17T00:51:19.898Z,0.41
2023-03-17T00:53:46.676Z,0.66
2023-03-17T00:56:14.652Z,0.90
2023-03-17T00:58:41.158Z,0.92
2023-03-17T01:01:08.679Z,0.38
2023-03-17T01:03:35.492Z,0.42
2023-03-17T01:06:02.234Z,0.29
2023-03-17T01:08:30.033Z,0.60
2023-03-17T01:10:56.804Z,0.61
2023-03-17T01:13:23.837Z,0.71
2023-03-17T01:15:50.544Z,0.68
2023-03-17T01:18:18.187Z,0.73
2023-03-17T01:20:44.823Z,0.63
2023-03-17T01:23:11.366Z,0.13
2023-03-17T01:25:38.573Z,0.14
2023-03-17T01:28:05.681Z,-0.20
2023-03-17T01:30:39.609Z,-0.21
2023-03-17T01:33:08.438Z,-0.16
2023-03-17T01:35:35.448Z,-0.27
2023-03-17T01:38:02.859Z,-0.27
2023-03-17T01:40:32.357Z,-0.37
2023-03-17T01:43:11.042Z,-0.05
2023-03-17T01:46:14.691Z,-0.14
2023-03-17T01:48:43.233Z,0.19
2023-03-17T01:51:11.612Z,-0.02
2023-03-17T01:53:38.084Z,-0.25
2023-03-17T01:56:04.669Z,-0.03
2023-03-17T01:58:31.118Z,0.24
2023-03-17T02:00:57.756Z,0.18
2023-03-17T02:03:24.304Z,0.35
2023-03-17T02:05:51.435Z,0.41
2023-03-17T02:08:17.913Z,0.49
2023-03-17T02:10:45.223Z,0.45
2023-03-17T02:13:12.344Z,0.48
2023-03-17T02:15:43.924Z,0.23
2023-03-17T02:18:12.462Z,0.30
2023-03-17T02:20:38.855Z,0.28
2023-03-17T02:23:05.973Z,-0.09
2023-03-17T02:25:33.314Z,-0.11
2023-03-17T02:28:08.308Z,-0.17
2023-03-17T02:30:34.982Z,-0.52
2023-03-17T02:33:02.568Z,-0.47
2023-03-17T02:35:29.548Z,-0.81
2023-03-17T02:37:56.498Z,-1.05
2023-03-17T02:40:23.292Z,-1.08
2023-03-17T02:42:50.179Z,-0.51
2023-03-17T02:45:16.981Z,-0.07
2023-03-17T02:47:43.452Z,0.14
2023-03-17T02:50:10.697Z,0.17
2023-03-17T02:52:37.443Z,-0.06
2023-03-17T02:55:04.060Z,-0.16
2023-03-17T02:57:30.758Z,-0.08
2023-03-17T02:59:57.267Z,-0.07
2023-03-17T03:02:23.769Z,0.01
2023-03-17T03:04:50.430Z,-0.58
2023-03-17T03:07:17.067Z,-0.58
2023-03-17T03:09:43.608Z,-0.72
2023-03-17T03:12:11.110Z,-0.87
2023-03-17T03:14:37.761Z,-1.04
2023-03-17T03:17:04.420Z,-0.65
2023-03-17T03:19:30.941Z,-0.46
2023-03-17T03:21:57.500Z,-0.24
2023-03-17T03:24:24.178Z,-0.49
2023-03-17T03:26:50.758Z,-1.10
2023-03-17T03:29:17.694Z,-1.27
2023-03-17T03:31:44.210Z,-1.27
2023-03-17T03:34:10.946Z,-1.31
2023-03-17T03:36:37.701Z,-1.22
2023-03-17T03:39:04.175Z,-1.31
2023-03-17T03:41:30.723Z,-1.10
2023-03-17T03:43:57.268Z,-1.07
2023-03-17T03:46:23.784Z,-1.24
2023-03-17T03:48:50.352Z,-1.44
2023-03-17T03:51:16.947Z,-1.50
2023-03-17T03:53:43.454Z,-1.43
2023-03-17T03:56:10.015Z,-1.36
2023-03-17T03:58:36.729Z,-1.47
2023-03-17T04:01:07.257Z,-1.41
2023-03-17T04:03:33.714Z,-1.21
2023-03-17T04:06:00.250Z,-0.81
2023-03-17T04:08:27.226Z,-1.10
2023-03-17T04:10:53.694Z,-0.90
2023-03-17T04:13:20.265Z,-1.29
2023-03-17T04:15:46.770Z,-1.21
2023-03-17T04:18:13.260Z,-1.34
2023-03-17T04:20:39.780Z,-1.09
2023-03-17T04:23:06.644Z,-1.26
2023-03-17T04:25:33.230Z,-1.37
2023-03-17T04:27:59.799Z,-1.36
2023-03-17T04:30:26.370Z,-1.53
2023-03-17T04:32:52.894Z,-1.54
2023-03-17T04:35:20.762Z,-1.70
2023-03-17T04:37:48.411Z,-1.33
2023-03-17T04:40:15.860Z,-1.73
2023-03-17T04:42:42.694Z,-1.42
2023-03-17T04:45:11.199Z,-1.15
2023-03-17T04:47:37.791Z,-1.15
2023-03-17T04:50:04.667Z,-1.38
2023-03-17T04:52:31.254Z,-1.56
2023-03-17T04:54:57.729Z,-1.35
2023-03-17T04:57:24.598Z,-1.31
2023-03-17T04:59:51.380Z,-1.09
2023-03-17T05:02:18.837Z,-1.03
2023-03-17T05:04:45.879Z,-0.92
2023-03-17T05:07:12.989Z,-0.68
2023-03-17T05:09:39.455Z,-0.56
2023-03-17T05:12:06.958Z,-0.52
2023-03-17T05:14:33.599Z,-0.43
2023-03-17T05:17:00.128Z,-0.37
2023-03-17T05:19:26.962Z,-0.21
2023-03-17T05:21:53.455Z,-0.43
2023-03-17T05:24:20.060Z,-0.59
2023-03-17T05:26:46.596Z,-0.61
2023-03-17T05:29:13.069Z,-0.78
2023-03-17T05:31:39.546Z,-0.76
2023-03-17T05:34:06.126Z,-0.70
2023-03-17T05:36:33.474Z,-0.53
2023-03-17T05:38:59.985Z,-0.39
2023-03-17T05:41:26.549Z,-0.34
2023-03-17T05:43:53.051Z,-0.30
2023-03-17T05:46:20.555Z,-0.28
2023-03-17T05:48:47.491Z,-0.37
2023-03-17T05:51:13.979Z,-0.34
2023-03-17T05:53:40.994Z,-0.22
2023-03-17T05:56:07.970Z,-0.41
2023-03-17T05:58:34.508Z,-0.23
2023-03-17T06:01:01.080Z,-0.50
2023-03-17T06:03:27.657Z,-0.44
2023-03-17T06:05:54.465Z,-0.13
2023-03-17T06:08:21.284Z,-0.21
2023-03-17T06:10:47.954Z,-0.22
2023-03-17T06:13:14.870Z,-0.12
2023-03-17T06:15:42.973Z,0.10
2023-03-17T06:18:09.680Z,0.25
2023-03-17T06:20:36.698Z,0.08
2023-03-17T06:23:05.559Z,0.02
2023-03-17T06:25:34.493Z,-0.29
2023-03-17T06:28:03.587Z,-0.23
2023-03-17T06:30:31.316Z,0.09
2023-03-17T06:32:57.986Z,0.25
2023-03-17T06:35:25.176Z,0.32
2023-03-17T06:37:51.721Z,0.46
2023-03-17T06:40:18.353Z,0.57
2023-03-17T06:42:44.853Z,0.62
2023-03-17T06:45:12.016Z,0.70
2023-03-17T06:47:39.752Z,0.73
2023-03-17T06:50:07.660Z,0.90
2023-03-17T06:52:34.171Z,1.02
2023-03-17T06:55:00.746Z,1.10
2023-03-17T06:57:27.326Z,1.17
2023-03-17T06:59:53.976Z,1.23
2023-03-17T07:02:23.410Z,1.27
2023-03-17T07:04:49.933Z,1.28
2023-03-17T07:07:16.619Z,1.45
2023-03-17T07:09:43.123Z,1.51
2023-03-17T07:12:10.305Z,1.58
2023-03-17T07:14:36.877Z,1.56
2023-03-17T07:17:04.474Z,1.72
2023-03-17T07:19:31.820Z,1.80
2023-03-17T07:21:58.346Z,1.83
2023-03-17T07:24:25.226Z,1.85
2023-03-17T07:26:52.174Z,1.94
2023-03-17T07:29:18.743Z,2.08
2023-03-17T07:31:45.554Z,2.21
2023-03-17T07:34:12.663Z,2.20
2023-03-17T07:36:39.761Z,2.11
2023-03-17T07:39:06.577Z,2.30
2023-03-17T07:41:33.107Z,2.39
2023-03-17T07:43:59.615Z,2.43
2023-03-17T07:46:26.548Z,2.66
2023-03-17T07:48:53.311Z,2.84
2023-03-17T07:51:22.154Z,3.01
2023-03-17T07:53:50.143Z,2.97
2023-03-17T07:56:17.668Z,2.95
2023-03-17T07:58:44.174Z,2.94
2023-03-17T08:01:11.048Z,3.08
2023-03-17T08:03:41.007Z,3.10
2023-03-17T08:06:08.568Z,3.28
2023-03-17T08:08:35.237Z,3.50
2023-03-17T08:11:03.635Z,3.71
2023-03-17T08:13:31.083Z,3.77
2023-03-17T08:15:57.685Z,3.92
2023-03-17T08:18:24.264Z,4.08
2023-03-17T08:20:51.402Z,4.20
2023-03-17T08:23:19.013Z,4.14
2023-03-17T08:25:46.601Z,4.15
2023-03-17T08:28:14.163Z,4.28
2023-03-17T08:30:44.835Z,4.56
2023-03-17T08:33:11.494Z,4.49
2023-03-17T08:35:41.504Z,4.75
2023-03-17T08:38:08.493Z,4.88
2023-03-17T08:40:35.053Z,5.07
2023-03-17T08:43:01.648Z,5.25
2023-03-17T08:45:28.352Z,5.40
2023-03-17T08:47:54.978Z,5.49
2023-03-17T08:50:22.661Z,5.59
2023-03-17T08:52:49.576Z,5.44
2023-03-17T08:55:16.334Z,5.62
2023-03-17T08:57:44.633Z,5.77
2023-03-17T09:00:13.196Z,5.81
2023-03-17T09:02:40.973Z,5.96
2023-03-17T09:05:07.604Z,6.12
2023-03-17T09:07:34.325Z,6.29
2023-03-17T09:10:03.811Z,6.25
2023-03-17T09:12:31.223Z,6.30
2023-03-17T09:14:58.389Z,6.21
2023-03-17T09:17:24.881Z,6.29
2023-03-17T09:19:51.597Z,6.62
2023-03-17T09:22:18.978Z,7.03
2023-03-17T09:24:46.537Z,7.23
2023-03-17T09:27:13.092Z,7.18
2023-03-17T09:29:39.724Z,7.21
2023-03-17T09:32:06.358Z,7.30
2023-03-17T09:34:33.018Z,7.47
2023-03-17T09:36:59.795Z,7.42
2023-03-17T09:39:27.489Z,7.19
2023-03-17T09:42:18.781Z,7.39
2023-03-17T09:45:06.396Z,7.89
2023-03-17T09:47:53.752Z,8.18
2023-03-17T09:50:25.978Z,8.21
2023-03-17T09:52:52.975Z,8.25
2023-03-17T09:55:24.983Z,8.32
2023-03-17T09:57:52.226Z,8.70
2023-03-17T10:00:20.714Z,8.54
2023-03-17T10:02:47.310Z,8.54
2023-03-17T10:05:20.627Z,8.61
2023-03-17T10:07:50.736Z,8.71
2023-03-17T10:10:32.801Z,8.70
2023-03-17T10:13:18.090Z,8.95
2023-03-17T10:15:44.483Z,8.92
2023-03-17T10:18:13.229Z,8.69
2023-03-17T10:21:19.302Z,9.11
2023-03-17T10:23:46.011Z,9.02
2023-03-17T10:26:50.867Z,9.16
2023-03-17T10:29:22.522Z,9.19
2023-03-17T10:31:49.596Z,9.16
2023-03-17T10:34:17.904Z,9.25
2023-03-17T10:36:49.388Z,9.27
2023-03-17T10:39:20.608Z,9.44
2023-03-17T10:42:11.476Z,9.62
2023-03-17T10:45:03.721Z,9.67
2023-03-17T10:47:31.667Z,9.77
2023-03-17T10:50:03.029Z,9.52
2023-03-17T10:52:31.072Z,9.70
2023-03-17T10:55:01.991Z,9.60
2023-03-17T10:57:28.725Z,9.86
2023-03-17T10:59:56.462Z,9.77
2023-03-17T11:02:28.045Z,9.65
2023-03-17T11:04:59.503Z,9.58
2023-03-17T11:07:38.125Z,9.71
2023-03-17T11:10:15.313Z,10.11
2023-03-17T11:12:42.404Z,10.20
2023-03-17T11:15:15.530Z,10.20
2023-03-17T11:17:59.022Z,10.26
2023-03-17T11:20:44.624Z,10.52
2023-03-17T11:23:23.671Z,10.52
2023-03-17T11:26:01.766Z,10.81
2023-03-17T11:28:30.903Z,11.17
2023-03-17T11:31:22.055Z,11.54
2023-03-17T11:34:08.691Z,11.50
2023-03-17T11:36:46.089Z,11.41
2023-03-17T11:39:25.461Z,11.74
2023-03-17T11:42:27.539Z,11.54
2023-03-17T11:44:58.977Z,11.53
2023-03-17T11:47:49.845Z,11.84
2023-03-17T11:50:30.210Z,11.73
2023-03-17T11:53:06.100Z,12.02
2023-03-17T11:55:50.065Z,12.04
2023-03-17T11:58:24.174Z,12.27
2023-03-17T12:00:52.757Z,12.53
2023-03-17T12:03:38.420Z,12.63
2023-03-17T12:06:07.501Z,12.58
2023-03-17T12:08:45.520Z,12.63
2023-03-17T12:11:18.279Z,12.63
2023-03-17T12:13:46.900Z,13.05
2023-03-17T12:16:25.570Z,13.04
2023-03-17T12:19:00.409Z,12.94
2023-03-17T12:21:45.718Z,13.01
2023-03-17T12:24:39.924Z,13.14
2023-03-17T12:27:13.880Z,13.08
2023-03-17T12:29:52.575Z,13.33
2023-03-17T12:32:27.716Z,13.61
2023-03-17T12:34:58.447Z,13.57
2023-03-17T12:37:27.398Z,13.85
2023-03-17T12:40:55.354Z,13.97
2023-03-17T12:43:34.084Z,13.85
2023-03-17T12:46:09.336Z,13.99
2023-03-17T12:48:58.454Z,13.92
2023-03-17T12:51:53.847Z,14.00
2023-03-17T12:54:27.667Z,14.13
2023-03-17T12:56:55.621Z,14.03
2023-03-17T12:59:24.249Z,14.09
2023-03-17T13:02:16.153Z,13.92
2023-03-17T13:05:09.958Z,13.87
2023-03-17T13:07:52.583Z,14.04
2023-03-17T13:10:40.748Z,14.32
2023-03-17T13:13:35.693Z,14.32
2023-03-17T13:16:05.879Z,14.08
2023-03-17T13:18:35.362Z,13.84
2023-03-17T13:21:02.123Z,14.05
2023-03-17T13:23:35.201Z,14.48
2023-03-17T13:26:04.343Z,14.51
2023-03-17T13:28:33.710Z,14.29
2023-03-17T13:31:29.306Z,14.07
2023-03-17T13:33:56.643Z,14.16
2023-03-17T13:36:28.700Z,14.48
2023-03-17T13:39:37.309Z,14.58
2023-03-17T13:42:30.967Z,14.56
2023-03-17T13:45:06.801Z,14.69
2023-03-17T13:47:35.464Z,14.86
2023-03-17T13:50:40.085Z,15.03
2023-03-17T13:53:10.339Z,14.82
2023-03-17T13:55:41.117Z,14.53
2023-03-17T13:58:11.921Z,14.50
2023-03-17T14:00:45.797Z,14.13
2023-03-17T14:03:51.145Z,13.82
2023-03-17T14:06:18.790Z,13.53
2023-03-17T14:08:47.859Z,13.50
2023-03-17T14:11:40.498Z,13.53
2023-03-17T14:14:31.470Z,13.50
2023-03-17T14:17:26.048Z,13.94
2023-03-17T14:20:21.143Z,14.04
2023-03-17T14:22:53.276Z,13.95
2023-03-17T14:25:24.001Z,13.92
2023-03-17T14:27:54.846Z,13.66
2023-03-17T14:30:26.419Z,13.55
2023-03-17T14:33:04.719Z,13.43
2023-03-17T14:35:42.896Z,13.37
2023-03-17T14:38:19.162Z,13.33
2023-03-17T14:40:45.970Z,13.29
2023-03-17T14:43:12.447Z,13.20
2023-03-17T14:45:53.062Z,13.20
2023-03-17T14:48:23.581Z,13.33
2023-03-17T14:50:59.832Z,13.47
2023-03-17T14:53:26.403Z,13.47
2023-03-17T14:55:52.988Z,13.36
2023-03-17T14:58:29.365Z,13.52
2023-03-17T15:01:02.010Z,13.56
2023-03-17T15:03:29.050Z,13.52
2023-03-17T15:06:07.539Z,13.45
2023-03-17T15:08:36.142Z,13.49
2023-03-17T15:11:03.950Z,13.47
2023-03-17T15:13:33.616Z,13.29
2023-03-17T15:16:05.274Z,13.20
2023-03-17T15:18:31.940Z,13.28
2023-03-17T15:21:00.330Z,13.34
2023-03-17T15:23:28.683Z,13.31
2023-03-17T15:25:56.359Z,13.26
2023-03-17T15:28:28.648Z,13.29
2023-03-17T15:30:57.004Z,13.32
2023-03-17T15:33:29.547Z,13.38
2023-03-17T15:35:56.820Z,13.37
2023-03-17T15:38:23.624Z,13.34
2023-03-17T15:40:50.220Z,13.29
2023-03-17T15:43:17.546Z,13.11
2023-03-17T15:45:45.074Z,13.03
2023-03-17T15:48:29.878Z,13.10
2023-03-17T15:50:58.465Z,13.04
2023-03-17T15:53:24.952Z,12.85
2023-03-17T15:55:51.654Z,12.87
2023-03-17T15:58:18.096Z,12.84
2023-03-17T16:00:45.097Z,12.57
2023-03-17T16:03:33.454Z,12.41
2023-03-17T16:06:00.612Z,12.25
2023-03-17T16:08:27.172Z,12.26
2023-03-17T16:10:53.728Z,12.38
2023-03-17T16:13:20.375Z,12.34
2023-03-17T16:15:58.220Z,12.17
2023-03-17T16:18:36.896Z,12.08
2023-03-17T16:21:04.264Z,11.93
2023-03-17T16:23:35.911Z,11.90
2023-03-17T16:26:14.194Z,11.89
2023-03-17T16:28:42.079Z,12.02
2023-03-17T16:31:30.182Z,12.10
2023-03-17T16:33:56.852Z,12.30
2023-03-17T16:36:23.781Z,12.07
2023-03-17T16:38:50.321Z,11.89
2023-03-17T16:41:24.815Z,11.79
2023-03-17T16:43:59.166Z,11.57
2023-03-17T16:46:25.851Z,11.36
2023-03-17T16:48:52.421Z,11.16
2023-03-17T16:51:18.983Z,11.24
2023-03-17T16:53:45.772Z,10.83
2023-03-17T16:56:17.887Z,10.80
2023-03-17T16:58:44.715Z,10.44
2023-03-17T17:01:25.511Z,10.17
2023-03-17T17:03:52.024Z,10.02
2023-03-17T17:06:18.653Z,9.64
2023-03-17T17:08:46.091Z,9.41
2023-03-17T17:11:13.520Z,9.43
2023-03-17T17:13:44.467Z,9.64
2023-03-17T17:16:32.814Z,9.19
2023-03-17T17:18:59.496Z,8.55
2023-03-17T17:21:26.434Z,8.06
2023-03-17T17:23:53.398Z,8.03
2023-03-17T17:26:20.084Z,7.77
2023-03-17T17:28:46.561Z,7.78
2023-03-17T17:31:13.506Z,7.25
2023-03-17T17:33:40.196Z,7.14
2023-03-17T17:36:11.402Z,6.68
2023-03-17T17:38:38.041Z,6.97
2023-03-17T17:41:05.857Z,7.06
2023-03-17T17:43:32.468Z,6.78
2023-03-17T17:45:59.016Z,6.78
2023-03-17T17:48:26.027Z,6.71
2023-03-17T17:50:53.006Z,6.53
2023-03-17T17:53:19.580Z,6.34
2023-03-17T17:55:46.767Z,6.28
2023-03-17T17:58:14.707Z,6.30
2023-03-17T18:00:41.457Z,6.25
2023-03-17T18:03:08.228Z,5.88
2023-03-17T18:05:34.790Z,5.78
2023-03-17T18:08:02.431Z,6.02
2023-03-17T18:10:29.710Z,6.07
2023-03-17T18:12:56.484Z,6.55
2023-03-17T18:15:23.897Z,6.80
2023-03-17T18:17:50.480Z,6.13
2023-03-17T18:20:18.319Z,5.68
2023-03-17T18:22:45.033Z,5.53
2023-03-17T18:25:12.720Z,5.40
2023-03-17T18:27:39.242Z,5.23
2023-03-17T18:30:07.448Z,5.22
2023-03-17T18:32:33.944Z,5.04
2023-03-17T18:35:02.867Z,4.71
2023-03-17T18:37:29.434Z,4.64
2023-03-17T18:40:12.504Z,4.81
2023-03-17T18:42:41.102Z,4.68
2023-03-17T18:45:09.684Z,4.80
2023-03-17T18:47:37.625Z,4.97
2023-03-17T18:50:05.091Z,4.98
2023-03-17T18:52:35.610Z,4.84
2023-03-17T18:55:02.218Z,4.86
2023-03-17T18:57:28.838Z,5.21
2023-03-17T18:59:55.553Z,5.30
2023-03-17T19:02:22.236Z,5.09
2023-03-17T19:04:49.045Z,4.85
2023-03-17T19:07:16.347Z,4.77
2023-03-17T19:09:42.937Z,4.84
2023-03-17T19:12:09.896Z,4.63
2023-03-17T19:14:37.077Z,4.44
2023-03-17T19:17:03.824Z,4.75
2023-03-17T19:19:30.613Z,4.34
2023-03-17T19:21:57.084Z,4.61
2023-03-17T19:24:23.599Z,4.38
2023-03-17T19:26:50.385Z,4.64
2023-03-17T19:29:16.977Z,4.34
2023-03-17T19:31:43.806Z,4.23
2023-03-17T19:34:12.858Z,4.21
2023-03-17T19:36:40.391Z,4.19
2023-03-17T19:39:08.647Z,4.42
2023-03-17T19:41:35.471Z,4.13
2023-03-17T19:44:02.076Z,4.05
2023-03-17T19:46:29.345Z,4.02
2023-03-17T19:48:58.986Z,4.03
2023-03-17T19:51:27.117Z,3.78
2023-03-17T19:53:54.294Z,3.77
2023-03-17T19:56:21.189Z,3.62
2023-03-17T19:58:47.650Z,3.77
2023-03-17T20:01:14.252Z,3.56
2023-03-17T20:03:43.860Z,3.83
2023-03-17T20:06:11.264Z,3.66
2023-03-17T20:08:39.155Z,3.58
2023-03-17T20:11:06.010Z,3.46
2023-03-17T20:13:33.177Z,3.38
2023-03-17T20:16:01.560Z,3.68
2023-03-17T20:18:28.873Z,3.57
2023-03-17T20:20:57.238Z,3.35
2023-03-17T20:23:24.375Z,3.14
2023-03-17T20:25:51.353Z,3.16
2023-03-17T20:28:18.043Z,3.22
2023-03-17T20:30:44.720Z,3.40
2023-03-17T20:33:14.228Z,3.18
2023-03-17T20:35:42.004Z,2.89
2023-03-17T20:38:09.300Z,3.05
2023-03-17T20:40:36.113Z,3.03
2023-03-17T20:43:02.633Z,2.92
2023-03-17T20:45:29.340Z,2.87
2023-03-17T20:47:56.131Z,2.89
2023-03-17T20:50:22.840Z,2.92
2023-03-17T20:52:49.661Z,2.99
2023-03-17T20:55:16.383Z,3.18
2023-03-17T20:57:45.239Z,2.95
2023-03-17T21:00:12.643Z,2.56
2023-03-17T21:02:39.404Z,2.61
2023-03-17T21:05:07.340Z,2.71
2023-03-17T21:07:33.821Z,2.75
2023-03-17T21:10:02.049Z,2.43
2023-03-17T21:12:28.595Z,2.75
2023-03-17T21:14:55.780Z,2.70
2023-03-17T21:17:22.885Z,2.38
2023-03-17T21:19:49.489Z,2.41
2023-03-17T21:22:16.122Z,2.17
2023-03-17T21:24:42.620Z,2.21
2023-03-17T21:27:11.872Z,2.76
2023-03-17T21:29:38.634Z,2.50
2023-03-17T21:32:05.325Z,2.22
2023-03-17T21:34:31.891Z,2.11
2023-03-17T21:36:58.879Z,2.43
2023-03-17T21:39:28.129Z,2.49
2023-03-17T21:41:56.010Z,2.36
2023-03-17T21:44:22.489Z,2.37
2023-03-17T21:46:49.225Z,2.34
2023-03-17T21:49:16.306Z,2.25
2023-03-17T21:51:44.162Z,1.98
2023-03-17T21:54:11.358Z,1.95
2023-03-17T21:56:38.567Z,2.17
2023-03-17T21:59:05.751Z,1.98
2023-03-17T22:01:32.344Z,2.10
2023-03-17T22:03:59.558Z,2.02
2023-03-17T22:06:27.416Z,1.95
2023-03-17T22:08:54.103Z,1.96
2023-03-17T22:11:20.571Z,1.87
2023-03-17T22:13:47.260Z,2.23
2023-03-17T22:16:14.056Z,2.17
2023-03-17T22:18:40.670Z,1.93
2023-03-17T22:21:08.254Z,2.18
2023-03-17T22:23:41.187Z,1.72
2023-03-17T22:26:09.196Z,1.97
2023-03-17T22:28:35.697Z,1.86
2023-03-17T22:31:07.029Z,1.99
2023-03-17T22:33:34.094Z,1.64
2023-03-17T22:36:00.623Z,1.53
2023-03-17T22:38:27.188Z,1.64
2023-03-17T22:41:05.271Z,1.49
2023-03-17T22:43:32.646Z,1.69
2023-03-17T22:45:59.163Z,1.50
2023-03-17T22:48:26.224Z,1.74
2023-03-17T22:50:52.707Z,1.29
2023-03-17T22:53:19.170Z,1.41
2023-03-17T22:55:45.797Z,1.55
2023-03-17T22:58:12.586Z,1.51
2023-03-17T23:00:40.254Z,1.47
2023-03-17T23:03:07.259Z,1.63
2023-03-17T23:05:33.800Z,1.07
2023-03-17T23:08:00.353Z,1.26
2023-03-17T23:10:27.314Z,1.04
2023-03-17T23:12:53.921Z,1.21
2023-03-17T23:15:21.026Z,1.46
2023-03-17T23:17:47.616Z,1.66
2023-03-17T23:20:15.066Z,1.69
2023-03-17T23:22:41.579Z,1.71
2023-03-17T23:25:08.532Z,1.29
2023-03-17T23:27:35.263Z,1.12
2023-03-17T23:30:01.794Z,0.90
2023-03-17T23:32:28.360Z,1.26
2023-03-17T23:34:54.877Z,1.51
2023-03-17T23:37:21.608Z,1.51
2023-03-17T23:39:48.505Z,1.50
2023-03-17T23:42:17.004Z,1.01
2023-03-17T23:44:45.019Z,0.75
2023-03-17T23:47:11.680Z,0.77
2023-03-17T23:49:38.787Z,0.54
2023-03-17T23:52:05.351Z,0.65
2023-03-17T23:54:32.008Z,0.79
2023-03-17T23:56:58.698Z,0.76
2023-03-17T23:59:25.272Z,0.77
